sensor_id;sensor_type;location;lat;lon;timestamp;P1;durP1;ratioP1;P2;durP2;ratioP2
13560;SDS011;6852;51.686;5.314;2023-05-13T00:00:42;6.43;;;5.83;;
13560;SDS011;6852;51.686;5.314;2023-05-13T00:03:09;7.47;;;5.87;;
13560;SDS011;6852;51.686;5.314;2023-05-13T00:05:37;6.13;;;5.53;;
13560;SDS011;6852;51.686;5.314;2023-05-13T00:08:04;6.87;;;5.80;;
13560;SDS011;6852;51.686;5.314;2023-05-13T00:10:34;7.43;;;6.00;;
13560;SDS011;6852;51.686;5.314;2023-05-13T00:13:01;5.87;;;5.27;;
13560;SDS011;6852;51.686;5.314;2023-05-13T00:15:28;7.60;;;6.13;;
13560;SDS011;6852;51.686;5.314;2023-05-13T00:17:55;8.57;;;6.10;;
13560;SDS011;6852;51.686;5.314;2023-05-13T00:20:22;7.77;;;5.67;;
13560;SDS011;6852;51.686;5.314;2023-05-13T00:22:49;6.37;;;5.40;;
13560;SDS011;6852;51.686;5.314;2023-05-13T00:25:16;6.00;;;5.50;;
13560;SDS011;6852;51.686;5.314;2023-05-13T00:27:43;7.00;;;5.97;;
13560;SDS011;6852;51.686;5.314;2023-05-13T00:30:10;7.70;;;5.63;;
13560;SDS011;6852;51.686;5.314;2023-05-13T00:32:37;6.33;;;5.73;;
13560;SDS011;6852;51.686;5.314;2023-05-13T00:35:04;9.50;;;6.20;;
13560;SDS011;6852;51.686;5.314;2023-05-13T00:37:31;7.30;;;6.27;;
13560;SDS011;6852;51.686;5.314;2023-05-13T00:39:58;7.23;;;6.47;;
13560;SDS011;6852;51.686;5.314;2023-05-13T00:42:25;7.43;;;5.90;;
13560;SDS011;6852;51.686;5.314;2023-05-13T00:44:52;7.10;;;6.03;;
13560;SDS011;6852;51.686;5.314;2023-05-13T00:47:18;8.17;;;6.60;;
13560;SDS011;6852;51.686;5.314;2023-05-13T00:49:46;9.23;;;6.50;;
13560;SDS011;6852;51.686;5.314;2023-05-13T00:52:13;8.13;;;6.77;;
13560;SDS011;6852;51.686;5.314;2023-05-13T00:54:40;7.87;;;5.67;;
13560;SDS011;6852;51.686;5.314;2023-05-13T00:57:07;6.87;;;5.97;;
13560;SDS011;6852;51.686;5.314;2023-05-13T00:59:34;9.77;;;6.13;;
13560;SDS011;6852;51.686;5.314;2023-05-13T01:02:15;9.87;;;6.57;;
13560;SDS011;6852;51.686;5.314;2023-05-13T01:10:26;7.20;;;5.40;;
13560;SDS011;6852;51.686;5.314;2023-05-13T01:13:03;6.87;;;6.17;;
13560;SDS011;6852;51.686;5.314;2023-05-13T01:15:33;7.07;;;6.20;;
13560;SDS011;6852;51.686;5.314;2023-05-13T01:18:25;7.60;;;5.70;;
13560;SDS011;6852;51.686;5.314;2023-05-13T01:20:56;9.77;;;5.73;;
13560;SDS011;6852;51.686;5.314;2023-05-13T01:23:26;7.93;;;5.70;;
13560;SDS011;6852;51.686;5.314;2023-05-13T01:25:53;6.67;;;5.60;;
13560;SDS011;6852;51.686;5.314;2023-05-13T01:28:19;6.47;;;5.60;;
13560;SDS011;6852;51.686;5.314;2023-05-13T01:30:46;7.03;;;5.63;;
13560;SDS011;6852;51.686;5.314;2023-05-13T01:33:14;6.83;;;5.50;;
13560;SDS011;6852;51.686;5.314;2023-05-13T01:35:42;7.47;;;5.17;;
13560;SDS011;6852;51.686;5.314;2023-05-13T01:38:11;7.63;;;5.10;;
13560;SDS011;6852;51.686;5.314;2023-05-13T01:40:40;7.93;;;5.27;;
13560;SDS011;6852;51.686;5.314;2023-05-13T01:43:07;5.40;;;4.90;;
13560;SDS011;6852;51.686;5.314;2023-05-13T01:45:34;6.80;;;5.20;;
13560;SDS011;6852;51.686;5.314;2023-05-13T01:48:02;5.93;;;5.27;;
13560;SDS011;6852;51.686;5.314;2023-05-13T01:50:29;6.90;;;5.60;;
13560;SDS011;6852;51.686;5.314;2023-05-13T01:52:56;7.57;;;5.47;;
13560;SDS011;6852;51.686;5.314;2023-05-13T01:55:23;7.00;;;5.53;;
13560;SDS011;6852;51.686;5.314;2023-05-13T01:57:49;7.53;;;5.17;;
13560;SDS011;6852;51.686;5.314;2023-05-13T02:00:16;7.97;;;5.70;;
13560;SDS011;6852;51.686;5.314;2023-05-13T02:02:43;8.30;;;5.20;;
13560;SDS011;6852;51.686;5.314;2023-05-13T02:05:12;6.33;;;5.67;;
13560;SDS011;6852;51.686;5.314;2023-05-13T02:07:39;6.20;;;4.87;;
13560;SDS011;6852;51.686;5.314;2023-05-13T02:10:06;7.50;;;5.00;;
13560;SDS011;6852;51.686;5.314;2023-05-13T02:12:33;5.27;;;4.77;;
13560;SDS011;6852;51.686;5.314;2023-05-13T02:15:00;5.70;;;4.97;;
13560;SDS011;6852;51.686;5.314;2023-05-13T02:17:27;5.83;;;5.23;;
13560;SDS011;6852;51.686;5.314;2023-05-13T02:19:54;6.37;;;5.10;;
13560;SDS011;6852;51.686;5.314;2023-05-13T02:22:21;6.10;;;4.70;;
13560;SDS011;6852;51.686;5.314;2023-05-13T02:24:48;5.40;;;4.60;;
13560;SDS011;6852;51.686;5.314;2023-05-13T02:27:14;10.90;;;5.30;;
13560;SDS011;6852;51.686;5.314;2023-05-13T02:29:41;7.67;;;5.00;;
13560;SDS011;6852;51.686;5.314;2023-05-13T02:32:08;7.10;;;5.03;;
13560;SDS011;6852;51.686;5.314;2023-05-13T02:34:35;8.03;;;5.27;;
13560;SDS011;6852;51.686;5.314;2023-05-13T02:37:03;5.63;;;5.03;;
13560;SDS011;6852;51.686;5.314;2023-05-13T02:39:30;9.77;;;6.17;;
13560;SDS011;6852;51.686;5.314;2023-05-13T02:41:57;8.77;;;5.73;;
13560;SDS011;6852;51.686;5.314;2023-05-13T02:44:25;8.07;;;5.37;;
13560;SDS011;6852;51.686;5.314;2023-05-13T02:46:51;6.80;;;4.90;;
13560;SDS011;6852;51.686;5.314;2023-05-13T02:49:18;5.23;;;4.73;;
13560;SDS011;6852;51.686;5.314;2023-05-13T02:51:45;5.87;;;5.27;;
13560;SDS011;6852;51.686;5.314;2023-05-13T02:54:12;7.37;;;5.60;;
13560;SDS011;6852;51.686;5.314;2023-05-13T02:56:39;6.60;;;5.90;;
13560;SDS011;6852;51.686;5.314;2023-05-13T02:59:06;5.67;;;5.10;;
13560;SDS011;6852;51.686;5.314;2023-05-13T03:01:33;8.03;;;5.50;;
13560;SDS011;6852;51.686;5.314;2023-05-13T03:04:00;8.57;;;6.10;;
13560;SDS011;6852;51.686;5.314;2023-05-13T03:06:27;9.33;;;5.87;;
13560;SDS011;6852;51.686;5.314;2023-05-13T03:08:54;7.20;;;5.43;;
13560;SDS011;6852;51.686;5.314;2023-05-13T03:11:21;7.93;;;5.47;;
13560;SDS011;6852;51.686;5.314;2023-05-13T03:13:48;7.33;;;6.10;;
13560;SDS011;6852;51.686;5.314;2023-05-13T03:16:14;8.33;;;6.33;;
13560;SDS011;6852;51.686;5.314;2023-05-13T03:18:41;7.67;;;5.93;;
13560;SDS011;6852;51.686;5.314;2023-05-13T03:21:08;6.87;;;6.17;;
13560;SDS011;6852;51.686;5.314;2023-05-13T03:23:35;7.80;;;6.53;;
13560;SDS011;6852;51.686;5.314;2023-05-13T03:26:02;9.43;;;5.80;;
13560;SDS011;6852;51.686;5.314;2023-05-13T03:28:29;7.47;;;6.77;;
13560;SDS011;6852;51.686;5.314;2023-05-13T03:30:56;9.70;;;6.50;;
13560;SDS011;6852;51.686;5.314;2023-05-13T03:33:23;8.50;;;7.03;;
13560;SDS011;6852;51.686;5.314;2023-05-13T03:35:50;7.03;;;6.40;;
13560;SDS011;6852;51.686;5.314;2023-05-13T03:38:17;7.20;;;6.47;;
13560;SDS011;6852;51.686;5.314;2023-05-13T03:40:43;8.97;;;6.57;;
13560;SDS011;6852;51.686;5.314;2023-05-13T03:43:10;8.30;;;6.70;;
13560;SDS011;6852;51.686;5.314;2023-05-13T03:45:37;7.67;;;6.73;;
13560;SDS011;6852;51.686;5.314;2023-05-13T03:48:04;9.00;;;7.23;;
13560;SDS011;6852;51.686;5.314;2023-05-13T03:50:31;9.33;;;7.23;;
13560;SDS011;6852;51.686;5.314;2023-05-13T03:52:58;7.57;;;6.77;;
13560;SDS011;6852;51.686;5.314;2023-05-13T03:55:25;8.63;;;6.93;;
13560;SDS011;6852;51.686;5.314;2023-05-13T03:57:52;8.57;;;7.67;;
13560;SDS011;6852;51.686;5.314;2023-05-13T04:00:19;8.43;;;7.33;;
13560;SDS011;6852;51.686;5.314;2023-05-13T04:02:46;8.87;;;7.97;;
13560;SDS011;6852;51.686;5.314;2023-05-13T04:05:14;9.80;;;8.27;;
13560;SDS011;6852;51.686;5.314;2023-05-13T04:07:41;7.93;;;7.13;;
13560;SDS011;6852;51.686;5.314;2023-05-13T04:10:08;8.93;;;7.50;;
13560;SDS011;6852;51.686;5.314;2023-05-13T04:12:39;10.20;;;7.93;;
13560;SDS011;6852;51.686;5.314;2023-05-13T04:15:06;9.10;;;7.70;;
13560;SDS011;6852;51.686;5.314;2023-05-13T04:17:33;10.77;;;7.90;;
13560;SDS011;6852;51.686;5.314;2023-05-13T04:20:00;8.90;;;7.93;;
13560;SDS011;6852;51.686;5.314;2023-05-13T04:22:27;9.77;;;8.00;;
13560;SDS011;6852;51.686;5.314;2023-05-13T04:24:54;8.77;;;7.90;;
13560;SDS011;6852;51.686;5.314;2023-05-13T04:27:22;8.93;;;8.00;;
13560;SDS011;6852;51.686;5.314;2023-05-13T04:29:50;11.07;;;8.27;;
13560;SDS011;6852;51.686;5.314;2023-05-13T04:32:17;9.87;;;7.83;;
13560;SDS011;6852;51.686;5.314;2023-05-13T04:34:47;9.97;;;8.27;;
13560;SDS011;6852;51.686;5.314;2023-05-13T04:37:14;9.90;;;8.90;;
13560;SDS011;6852;51.686;5.314;2023-05-13T04:39:43;9.50;;;7.80;;
13560;SDS011;6852;51.686;5.314;2023-05-13T04:42:12;8.30;;;7.40;;
13560;SDS011;6852;51.686;5.314;2023-05-13T04:44:39;9.67;;;7.63;;
13560;SDS011;6852;51.686;5.314;2023-05-13T04:47:06;12.47;;;7.93;;
13560;SDS011;6852;51.686;5.314;2023-05-13T04:49:33;10.17;;;8.57;;
13560;SDS011;6852;51.686;5.314;2023-05-13T04:52:01;9.33;;;8.33;;
13560;SDS011;6852;51.686;5.314;2023-05-13T04:54:29;10.13;;;8.17;;
13560;SDS011;6852;51.686;5.314;2023-05-13T04:56:56;13.63;;;8.50;;
13560;SDS011;6852;51.686;5.314;2023-05-13T04:59:23;10.80;;;8.53;;
13560;SDS011;6852;51.686;5.314;2023-05-13T05:01:50;9.10;;;8.20;;
13560;SDS011;6852;51.686;5.314;2023-05-13T05:04:17;10.20;;;8.00;;
13560;SDS011;6852;51.686;5.314;2023-05-13T05:06:44;10.53;;;8.33;;
13560;SDS011;6852;51.686;5.314;2023-05-13T05:09:11;9.37;;;7.93;;
13560;SDS011;6852;51.686;5.314;2023-05-13T05:11:37;8.97;;;8.03;;
13560;SDS011;6852;51.686;5.314;2023-05-13T05:14:04;9.17;;;8.30;;
13560;SDS011;6852;51.686;5.314;2023-05-13T05:16:31;8.50;;;7.70;;
13560;SDS011;6852;51.686;5.314;2023-05-13T05:18:58;11.33;;;8.70;;
13560;SDS011;6852;51.686;5.314;2023-05-13T05:21:25;11.07;;;9.00;;
13560;SDS011;6852;51.686;5.314;2023-05-13T05:23:52;10.93;;;8.80;;
13560;SDS011;6852;51.686;5.314;2023-05-13T05:26:19;9.90;;;8.73;;
13560;SDS011;6852;51.686;5.314;2023-05-13T05:28:45;9.13;;;8.27;;
13560;SDS011;6852;51.686;5.314;2023-05-13T05:31:12;10.10;;;8.23;;
13560;SDS011;6852;51.686;5.314;2023-05-13T05:33:40;9.60;;;8.03;;
13560;SDS011;6852;51.686;5.314;2023-05-13T05:36:07;9.67;;;8.27;;
13560;SDS011;6852;51.686;5.314;2023-05-13T05:38:34;9.83;;;8.03;;
13560;SDS011;6852;51.686;5.314;2023-05-13T05:41:01;9.33;;;8.27;;
13560;SDS011;6852;51.686;5.314;2023-05-13T05:43:28;11.70;;;8.93;;
13560;SDS011;6852;51.686;5.314;2023-05-13T05:45:55;9.70;;;8.70;;
13560;SDS011;6852;51.686;5.314;2023-05-13T05:48:22;9.43;;;8.33;;
13560;SDS011;6852;51.686;5.314;2023-05-13T05:50:49;9.67;;;8.30;;
13560;SDS011;6852;51.686;5.314;2023-05-13T05:53:16;11.50;;;8.57;;
13560;SDS011;6852;51.686;5.314;2023-05-13T05:55:43;11.20;;;8.33;;
13560;SDS011;6852;51.686;5.314;2023-05-13T05:58:13;9.57;;;8.63;;
13560;SDS011;6852;51.686;5.314;2023-05-13T06:00:40;10.90;;;9.10;;
13560;SDS011;6852;51.686;5.314;2023-05-13T06:03:07;13.53;;;8.40;;
13560;SDS011;6852;51.686;5.314;2023-05-13T06:05:34;10.10;;;8.63;;
13560;SDS011;6852;51.686;5.314;2023-05-13T06:08:01;10.53;;;8.20;;
13560;SDS011;6852;51.686;5.314;2023-05-13T06:10:28;12.23;;;9.10;;
13560;SDS011;6852;51.686;5.314;2023-05-13T06:12:55;11.17;;;8.73;;
13560;SDS011;6852;51.686;5.314;2023-05-13T06:15:22;11.53;;;8.17;;
13560;SDS011;6852;51.686;5.314;2023-05-13T06:17:49;9.53;;;8.60;;
13560;SDS011;6852;51.686;5.314;2023-05-13T06:20:15;10.87;;;8.97;;
13560;SDS011;6852;51.686;5.314;2023-05-13T06:22:42;11.27;;;9.13;;
13560;SDS011;6852;51.686;5.314;2023-05-13T06:25:09;10.60;;;8.97;;
13560;SDS011;6852;51.686;5.314;2023-05-13T06:27:36;10.70;;;8.93;;
13560;SDS011;6852;51.686;5.314;2023-05-13T06:30:03;9.47;;;8.27;;
13560;SDS011;6852;51.686;5.314;2023-05-13T06:32:32;10.03;;;9.13;;
13560;SDS011;6852;51.686;5.314;2023-05-13T06:34:59;10.67;;;8.97;;
13560;SDS011;6852;51.686;5.314;2023-05-13T06:37:26;10.07;;;9.07;;
13560;SDS011;6852;51.686;5.314;2023-05-13T06:39:53;12.20;;;8.97;;
13560;SDS011;6852;51.686;5.314;2023-05-13T06:42:20;10.47;;;8.83;;
13560;SDS011;6852;51.686;5.314;2023-05-13T06:44:46;9.50;;;8.50;;
13560;SDS011;6852;51.686;5.314;2023-05-13T06:47:13;9.07;;;8.17;;
13560;SDS011;6852;51.686;5.314;2023-05-13T06:49:41;8.67;;;7.77;;
13560;SDS011;6852;51.686;5.314;2023-05-13T06:52:08;10.63;;;8.93;;
13560;SDS011;6852;51.686;5.314;2023-05-13T06:54:36;11.40;;;7.80;;
13560;SDS011;6852;51.686;5.314;2023-05-13T06:57:03;12.13;;;8.83;;
13560;SDS011;6852;51.686;5.314;2023-05-13T06:59:30;10.87;;;8.80;;
13560;SDS011;6852;51.686;5.314;2023-05-13T07:01:57;9.47;;;8.47;;
13560;SDS011;6852;51.686;5.314;2023-05-13T07:04:24;10.93;;;9.07;;
13560;SDS011;6852;51.686;5.314;2023-05-13T07:06:51;10.80;;;8.67;;
13560;SDS011;6852;51.686;5.314;2023-05-13T07:09:19;9.80;;;8.80;;
13560;SDS011;6852;51.686;5.314;2023-05-13T07:11:46;11.43;;;9.00;;
13560;SDS011;6852;51.686;5.314;2023-05-13T07:14:13;11.87;;;8.40;;
13560;SDS011;6852;51.686;5.314;2023-05-13T07:16:40;9.47;;;7.97;;
13560;SDS011;6852;51.686;5.314;2023-05-13T07:19:07;10.73;;;9.63;;
13560;SDS011;6852;51.686;5.314;2023-05-13T07:21:34;11.57;;;8.27;;
13560;SDS011;6852;51.686;5.314;2023-05-13T07:24:01;9.93;;;8.63;;
13560;SDS011;6852;51.686;5.314;2023-05-13T07:26:30;12.10;;;8.90;;
13560;SDS011;6852;51.686;5.314;2023-05-13T07:28:57;10.27;;;8.57;;
13560;SDS011;6852;51.686;5.314;2023-05-13T07:31:24;11.33;;;8.97;;
13560;SDS011;6852;51.686;5.314;2023-05-13T07:33:52;8.83;;;7.90;;
13560;SDS011;6852;51.686;5.314;2023-05-13T07:36:19;10.23;;;9.13;;
13560;SDS011;6852;51.686;5.314;2023-05-13T07:38:46;11.57;;;8.73;;
13560;SDS011;6852;51.686;5.314;2023-05-13T07:41:13;9.37;;;8.30;;
13560;SDS011;6852;51.686;5.314;2023-05-13T07:43:39;11.90;;;9.63;;
13560;SDS011;6852;51.686;5.314;2023-05-13T07:46:07;11.03;;;8.70;;
13560;SDS011;6852;51.686;5.314;2023-05-13T07:48:34;9.07;;;8.27;;
13560;SDS011;6852;51.686;5.314;2023-05-13T07:51:01;11.37;;;9.27;;
13560;SDS011;6852;51.686;5.314;2023-05-13T07:53:28;9.80;;;8.80;;
13560;SDS011;6852;51.686;5.314;2023-05-13T07:55:54;11.30;;;8.97;;
13560;SDS011;6852;51.686;5.314;2023-05-13T07:58:21;10.47;;;8.77;;
13560;SDS011;6852;51.686;5.314;2023-05-13T08:00:48;15.00;;;9.30;;
13560;SDS011;6852;51.686;5.314;2023-05-13T08:03:15;8.97;;;8.17;;
13560;SDS011;6852;51.686;5.314;2023-05-13T08:05:42;11.57;;;8.80;;
13560;SDS011;6852;51.686;5.314;2023-05-13T08:08:09;10.70;;;8.30;;
13560;SDS011;6852;51.686;5.314;2023-05-13T08:10:37;10.00;;;9.00;;
13560;SDS011;6852;51.686;5.314;2023-05-13T08:13:04;10.53;;;7.97;;
13560;SDS011;6852;51.686;5.314;2023-05-13T08:15:31;10.97;;;8.63;;
13560;SDS011;6852;51.686;5.314;2023-05-13T08:17:58;10.67;;;8.53;;
13560;SDS011;6852;51.686;5.314;2023-05-13T08:20:24;8.70;;;7.80;;
13560;SDS011;6852;51.686;5.314;2023-05-13T08:22:56;8.40;;;7.60;;
13560;SDS011;6852;51.686;5.314;2023-05-13T08:25:23;8.73;;;7.83;;
13560;SDS011;6852;51.686;5.314;2023-05-13T08:27:50;9.67;;;8.30;;
13560;SDS011;6852;51.686;5.314;2023-05-13T08:30:17;9.67;;;8.50;;
13560;SDS011;6852;51.686;5.314;2023-05-13T08:32:44;9.27;;;7.70;;
13560;SDS011;6852;51.686;5.314;2023-05-13T08:35:11;9.90;;;8.00;;
13560;SDS011;6852;51.686;5.314;2023-05-13T08:37:38;10.13;;;8.27;;
13560;SDS011;6852;51.686;5.314;2023-05-13T08:40:05;8.67;;;7.87;;
13560;SDS011;6852;51.686;5.314;2023-05-13T08:42:33;11.67;;;7.97;;
13560;SDS011;6852;51.686;5.314;2023-05-13T08:45:03;10.57;;;8.80;;
13560;SDS011;6852;51.686;5.314;2023-05-13T08:47:43;10.07;;;8.97;;
13560;SDS011;6852;51.686;5.314;2023-05-13T08:50:11;11.47;;;8.90;;
13560;SDS011;6852;51.686;5.314;2023-05-13T08:52:38;9.70;;;8.70;;
13560;SDS011;6852;51.686;5.314;2023-05-13T08:55:05;9.57;;;8.67;;
13560;SDS011;6852;51.686;5.314;2023-05-13T08:57:34;10.93;;;7.93;;
13560;SDS011;6852;51.686;5.314;2023-05-13T09:00:01;10.23;;;8.30;;
13560;SDS011;6852;51.686;5.314;2023-05-13T09:02:30;9.20;;;8.07;;
13560;SDS011;6852;51.686;5.314;2023-05-13T09:04:58;8.40;;;7.60;;
13560;SDS011;6852;51.686;5.314;2023-05-13T09:07:31;12.03;;;9.53;;
13560;SDS011;6852;51.686;5.314;2023-05-13T09:09:58;10.33;;;8.33;;
13560;SDS011;6852;51.686;5.314;2023-05-13T09:15:21;9.60;;;8.17;;
13560;SDS011;6852;51.686;5.314;2023-05-13T09:18:00;9.33;;;8.40;;
13560;SDS011;6852;51.686;5.314;2023-05-13T09:20:29;8.67;;;7.70;;
13560;SDS011;6852;51.686;5.314;2023-05-13T09:22:57;9.93;;;8.83;;
13560;SDS011;6852;51.686;5.314;2023-05-13T09:25:29;10.33;;;8.47;;
13560;SDS011;6852;51.686;5.314;2023-05-13T09:27:58;11.53;;;8.80;;
13560;SDS011;6852;51.686;5.314;2023-05-13T09:30:27;8.80;;;7.87;;
13560;SDS011;6852;51.686;5.314;2023-05-13T09:35:36;12.73;;;8.47;;
13560;SDS011;6852;51.686;5.314;2023-05-13T09:38:14;12.13;;;8.40;;
13560;SDS011;6852;51.686;5.314;2023-05-13T09:40:48;8.93;;;7.97;;
13560;SDS011;6852;51.686;5.314;2023-05-13T09:43:20;8.27;;;7.27;;
13560;SDS011;6852;51.686;5.314;2023-05-13T09:45:55;8.87;;;7.93;;
13560;SDS011;6852;51.686;5.314;2023-05-13T09:48:24;8.63;;;7.40;;
13560;SDS011;6852;51.686;5.314;2023-05-13T09:50:52;11.00;;;8.00;;
13560;SDS011;6852;51.686;5.314;2023-05-13T09:53:20;10.70;;;7.37;;
13560;SDS011;6852;51.686;5.314;2023-05-13T09:55:48;8.70;;;7.20;;
13560;SDS011;6852;51.686;5.314;2023-05-13T09:58:16;8.90;;;7.23;;
13560;SDS011;6852;51.686;5.314;2023-05-13T10:00:45;8.77;;;7.37;;
13560;SDS011;6852;51.686;5.314;2023-05-13T10:03:13;8.70;;;7.23;;
13560;SDS011;6852;51.686;5.314;2023-05-13T10:05:40;8.63;;;6.93;;
13560;SDS011;6852;51.686;5.314;2023-05-13T10:08:08;8.17;;;7.10;;
13560;SDS011;6852;51.686;5.314;2023-05-13T10:10:37;8.57;;;6.63;;
13560;SDS011;6852;51.686;5.314;2023-05-13T10:13:07;8.53;;;7.73;;
13560;SDS011;6852;51.686;5.314;2023-05-13T10:15:38;8.50;;;7.60;;
13560;SDS011;6852;51.686;5.314;2023-05-13T10:18:10;9.10;;;7.50;;
13560;SDS011;6852;51.686;5.314;2023-05-13T10:20:37;10.83;;;7.73;;
13560;SDS011;6852;51.686;5.314;2023-05-13T10:23:04;8.10;;;7.00;;
13560;SDS011;6852;51.686;5.314;2023-05-13T10:25:31;10.33;;;7.13;;
13560;SDS011;6852;51.686;5.314;2023-05-13T10:27:58;8.20;;;6.73;;
13560;SDS011;6852;51.686;5.314;2023-05-13T10:30:26;9.80;;;6.07;;
13560;SDS011;6852;51.686;5.314;2023-05-13T10:32:57;7.70;;;6.90;;
13560;SDS011;6852;51.686;5.314;2023-05-13T10:35:26;8.10;;;6.77;;
13560;SDS011;6852;51.686;5.314;2023-05-13T10:38:09;8.03;;;6.27;;
13560;SDS011;6852;51.686;5.314;2023-05-13T10:43:21;7.03;;;6.40;;
13560;SDS011;6852;51.686;5.314;2023-05-13T10:46:11;7.67;;;6.40;;
13560;SDS011;6852;51.686;5.314;2023-05-13T10:48:40;8.17;;;6.27;;
13560;SDS011;6852;51.686;5.314;2023-05-13T10:51:09;6.57;;;5.80;;
13560;SDS011;6852;51.686;5.314;2023-05-13T10:53:47;8.53;;;5.70;;
13560;SDS011;6852;51.686;5.314;2023-05-13T10:56:19;7.50;;;5.40;;
13560;SDS011;6852;51.686;5.314;2023-05-13T10:59:01;7.53;;;5.90;;
13560;SDS011;6852;51.686;5.314;2023-05-13T11:01:32;6.20;;;5.60;;
13560;SDS011;6852;51.686;5.314;2023-05-13T11:04:12;7.23;;;5.47;;
13560;SDS011;6852;51.686;5.314;2023-05-13T11:06:41;7.67;;;5.87;;
13560;SDS011;6852;51.686;5.314;2023-05-13T11:09:12;6.20;;;5.37;;
13560;SDS011;6852;51.686;5.314;2023-05-13T11:11:39;5.93;;;4.93;;
13560;SDS011;6852;51.686;5.314;2023-05-13T11:14:16;5.53;;;4.50;;
13560;SDS011;6852;51.686;5.314;2023-05-13T11:19:30;5.10;;;4.60;;
13560;SDS011;6852;51.686;5.314;2023-05-13T11:24:43;6.27;;;4.63;;
13560;SDS011;6852;51.686;5.314;2023-05-13T11:27:12;31.50;;;27.33;;
13560;SDS011;6852;51.686;5.314;2023-05-13T11:29:49;7.07;;;6.10;;
13560;SDS011;6852;51.686;5.314;2023-05-13T11:35:19;5.93;;;4.57;;
13560;SDS011;6852;51.686;5.314;2023-05-13T11:37:57;6.90;;;4.90;;
13560;SDS011;6852;51.686;5.314;2023-05-13T11:43:02;9.23;;;4.10;;
13560;SDS011;6852;51.686;5.314;2023-05-13T11:45:31;5.20;;;4.00;;
13560;SDS011;6852;51.686;5.314;2023-05-13T11:47:59;5.07;;;4.27;;
13560;SDS011;6852;51.686;5.314;2023-05-13T11:50:44;5.10;;;3.87;;
13560;SDS011;6852;51.686;5.314;2023-05-13T11:53:11;5.40;;;3.77;;
13560;SDS011;6852;51.686;5.314;2023-05-13T11:55:46;7.53;;;4.97;;
13560;SDS011;6852;51.686;5.314;2023-05-13T11:58:13;5.10;;;3.97;;
13560;SDS011;6852;51.686;5.314;2023-05-13T12:00:41;5.20;;;3.90;;
13560;SDS011;6852;51.686;5.314;2023-05-13T12:03:11;3.80;;;3.47;;
13560;SDS011;6852;51.686;5.314;2023-05-13T12:05:40;6.00;;;3.83;;
13560;SDS011;6852;51.686;5.314;2023-05-13T12:08:09;4.90;;;3.40;;
13560;SDS011;6852;51.686;5.314;2023-05-13T12:10:43;5.83;;;3.63;;
13560;SDS011;6852;51.686;5.314;2023-05-13T12:13:10;5.93;;;2.73;;
13560;SDS011;6852;51.686;5.314;2023-05-13T12:15:37;5.90;;;2.90;;
13560;SDS011;6852;51.686;5.314;2023-05-13T12:18:04;2.87;;;2.40;;
13560;SDS011;6852;51.686;5.314;2023-05-13T12:20:32;3.43;;;2.87;;
13560;SDS011;6852;51.686;5.314;2023-05-13T12:23:00;2.73;;;2.53;;
13560;SDS011;6852;51.686;5.314;2023-05-13T12:30:36;5.43;;;2.73;;
13560;SDS011;6852;51.686;5.314;2023-05-13T12:33:20;4.43;;;2.60;;
13560;SDS011;6852;51.686;5.314;2023-05-13T12:35:49;4.23;;;3.00;;
13560;SDS011;6852;51.686;5.314;2023-05-13T12:38:19;3.60;;;2.60;;
13560;SDS011;6852;51.686;5.314;2023-05-13T12:40:49;3.47;;;2.77;;
13560;SDS011;6852;51.686;5.314;2023-05-13T12:43:17;2.73;;;2.43;;
13560;SDS011;6852;51.686;5.314;2023-05-13T12:45:45;4.30;;;2.77;;
13560;SDS011;6852;51.686;5.314;2023-05-13T12:48:21;6.67;;;2.70;;
13560;SDS011;6852;51.686;5.314;2023-05-13T12:50:49;3.37;;;2.80;;
13560;SDS011;6852;51.686;5.314;2023-05-13T12:53:16;3.07;;;2.63;;
13560;SDS011;6852;51.686;5.314;2023-05-13T12:55:43;5.63;;;3.07;;
13560;SDS011;6852;51.686;5.314;2023-05-13T12:58:10;6.97;;;3.27;;
13560;SDS011;6852;51.686;5.314;2023-05-13T13:00:38;6.00;;;2.60;;
13560;SDS011;6852;51.686;5.314;2023-05-13T13:03:05;4.90;;;2.73;;
13560;SDS011;6852;51.686;5.314;2023-05-13T13:05:33;5.30;;;2.70;;
13560;SDS011;6852;51.686;5.314;2023-05-13T13:08:00;4.83;;;3.03;;
13560;SDS011;6852;51.686;5.314;2023-05-13T13:10:30;3.33;;;2.67;;
13560;SDS011;6852;51.686;5.314;2023-05-13T13:12:57;3.27;;;2.97;;
13560;SDS011;6852;51.686;5.314;2023-05-13T13:15:23;5.60;;;2.83;;
13560;SDS011;6852;51.686;5.314;2023-05-13T13:17:50;4.47;;;3.13;;
13560;SDS011;6852;51.686;5.314;2023-05-13T13:20:17;4.00;;;2.70;;
13560;SDS011;6852;51.686;5.314;2023-05-13T13:22:44;3.97;;;3.00;;
13560;SDS011;6852;51.686;5.314;2023-05-13T13:25:11;3.97;;;2.63;;
13560;SDS011;6852;51.686;5.314;2023-05-13T13:27:38;3.03;;;2.73;;
13560;SDS011;6852;51.686;5.314;2023-05-13T13:30:05;4.47;;;2.90;;
13560;SDS011;6852;51.686;5.314;2023-05-13T13:32:33;5.33;;;2.80;;
13560;SDS011;6852;51.686;5.314;2023-05-13T13:35:01;4.33;;;2.50;;
13560;SDS011;6852;51.686;5.314;2023-05-13T13:37:30;6.60;;;3.23;;
13560;SDS011;6852;51.686;5.314;2023-05-13T13:39:57;3.40;;;2.83;;
13560;SDS011;6852;51.686;5.314;2023-05-13T13:42:24;4.10;;;3.10;;
13560;SDS011;6852;51.686;5.314;2023-05-13T13:45:08;5.90;;;2.97;;
13560;SDS011;6852;51.686;5.314;2023-05-13T13:47:35;3.63;;;3.17;;
13560;SDS011;6852;51.686;5.314;2023-05-13T13:50:03;4.93;;;3.00;;
13560;SDS011;6852;51.686;5.314;2023-05-13T13:52:30;5.90;;;2.90;;
13560;SDS011;6852;51.686;5.314;2023-05-13T13:54:57;3.87;;;3.00;;
13560;SDS011;6852;51.686;5.314;2023-05-13T13:57:23;7.47;;;3.20;;
13560;SDS011;6852;51.686;5.314;2023-05-13T13:59:50;3.47;;;2.80;;
13560;SDS011;6852;51.686;5.314;2023-05-13T14:02:17;5.67;;;3.07;;
13560;SDS011;6852;51.686;5.314;2023-05-13T14:04:44;4.37;;;2.83;;
13560;SDS011;6852;51.686;5.314;2023-05-13T14:07:11;4.53;;;2.80;;
13560;SDS011;6852;51.686;5.314;2023-05-13T14:09:38;6.47;;;2.87;;
13560;SDS011;6852;51.686;5.314;2023-05-13T14:12:05;3.13;;;2.83;;
13560;SDS011;6852;51.686;5.314;2023-05-13T14:14:32;2.97;;;2.53;;
13560;SDS011;6852;51.686;5.314;2023-05-13T14:16:59;2.73;;;2.40;;
13560;SDS011;6852;51.686;5.314;2023-05-13T14:19:26;3.73;;;2.70;;
13560;SDS011;6852;51.686;5.314;2023-05-13T14:21:52;4.47;;;2.80;;
13560;SDS011;6852;51.686;5.314;2023-05-13T14:24:21;5.20;;;2.80;;
13560;SDS011;6852;51.686;5.314;2023-05-13T14:26:48;3.00;;;2.80;;
13560;SDS011;6852;51.686;5.314;2023-05-13T14:29:15;2.90;;;2.70;;
13560;SDS011;6852;51.686;5.314;2023-05-13T14:31:42;3.47;;;3.07;;
13560;SDS011;6852;51.686;5.314;2023-05-13T14:34:09;4.20;;;3.03;;
13560;SDS011;6852;51.686;5.314;2023-05-13T14:36:36;5.40;;;3.60;;
13560;SDS011;6852;51.686;5.314;2023-05-13T14:39:03;5.73;;;3.10;;
13560;SDS011;6852;51.686;5.314;2023-05-13T14:41:29;4.27;;;2.80;;
13560;SDS011;6852;51.686;5.314;2023-05-13T14:43:56;4.13;;;2.80;;
13560;SDS011;6852;51.686;5.314;2023-05-13T14:46:23;3.80;;;3.03;;
13560;SDS011;6852;51.686;5.314;2023-05-13T14:48:50;9.37;;;2.83;;
13560;SDS011;6852;51.686;5.314;2023-05-13T14:51:17;6.03;;;2.47;;
13560;SDS011;6852;51.686;5.314;2023-05-13T14:53:44;4.23;;;3.07;;
13560;SDS011;6852;51.686;5.314;2023-05-13T14:56:10;5.23;;;3.27;;
13560;SDS011;6852;51.686;5.314;2023-05-13T14:58:37;5.97;;;3.30;;
13560;SDS011;6852;51.686;5.314;2023-05-13T15:01:04;6.00;;;2.93;;
13560;SDS011;6852;51.686;5.314;2023-05-13T15:03:31;3.20;;;2.90;;
13560;SDS011;6852;51.686;5.314;2023-05-13T15:05:58;4.80;;;3.40;;
13560;SDS011;6852;51.686;5.314;2023-05-13T15:08:25;5.03;;;3.20;;
13560;SDS011;6852;51.686;5.314;2023-05-13T15:10:52;4.67;;;3.40;;
13560;SDS011;6852;51.686;5.314;2023-05-13T15:13:19;3.97;;;2.90;;
13560;SDS011;6852;51.686;5.314;2023-05-13T15:15:45;4.20;;;3.17;;
13560;SDS011;6852;51.686;5.314;2023-05-13T15:18:12;4.17;;;3.20;;
13560;SDS011;6852;51.686;5.314;2023-05-13T15:20:39;5.40;;;2.70;;
13560;SDS011;6852;51.686;5.314;2023-05-13T15:23:06;6.10;;;2.77;;
13560;SDS011;6852;51.686;5.314;2023-05-13T15:25:34;4.37;;;2.93;;
13560;SDS011;6852;51.686;5.314;2023-05-13T15:28:01;2.90;;;2.63;;
13560;SDS011;6852;51.686;5.314;2023-05-13T15:30:28;3.43;;;2.57;;
13560;SDS011;6852;51.686;5.314;2023-05-13T15:32:55;3.40;;;2.97;;